Decoded Metar for UBBQ ( in ) (IATA:) | Meteo·Mobile Aviation Weather
aviador You're here:

UBBQ Decoded Metar

in
Report Time2018-09-22 11:00:00
UTC Time2018-09-22 11:09:55
Flight Rules vfr VFR
Wind240° at 07 kt
W.Decomp.*RWY 16: 1.2 kt HW 6.9 kt RCW
W.Rank240° ranks 18
Current wind is above 240° avg. (5.1)
Visibility9999 m
Phenomena:N/A
Clouds:Scattered 050 Hf
Expected CloudBase > 4,800 ft AGL from Temp-Dew spread
CeilingNone
Temp27°C
Dew Point15°C (48% RH)
Heat Index27.3°C
AAT26.1°C
QNH1018 hPa
Raw Report
METAR UBBQ 221100Z 24007KT 9999 SCT050 27/15 Q1018
R16/////// NOSIG RMK MT OBSC=

Extra information for UBBQ:More info

Social comments